ENKB/KSU METAR and TAF weather

Enter ICAO airport designator
Station Type Date Time Source
ENKB METAR 2018/10/16 13:50 UTC NOAA

ENKB 161350Z 13004KT 070V190 CAVOK 12/01 Q1011 RMK WIND 745FT 15014KT


Station Type Date Time Source
ENKB Decoded METAR 2018/10/16 13:50 UTC NOAA

Kristiansund / Kvernberget, Norway (ENKB) 63-07N 007-50E 62M
Oct 16, 2018 - 09:50 AM EDT / 2018.10.16 1350 UTC
Wind: from the SE (130 degrees) at 5 MPH (4 KT) (direction variable):0
Visibility: greater than 7 mile(s):0
Temperature: 53 F (12 C)
Dew Point: 33 F (1 C)
Relative Humidity: 46%
Pressure (altimeter): 29.85 in. Hg (1011 hPa)
ob: ENKB 161350Z 13004KT 070V190 CAVOK 12/01 Q1011 RMK WIND 745FT 15014KT
cycle: 14

Station Type Date Time Source
ENKB TAF 2010/02/05 07:50 UTC NOAA

METAR ENKB 050750Z 15011KT 110V200 9999 SCT055 BKN070 03/M05 Q1007


Example: see airport list